createdAt,value
2019-05-23T00:02:16.359Z,66.60
2019-05-23T00:05:16.899Z,66.70
2019-05-23T00:08:11.792Z,67.20
2019-05-23T00:10:56.455Z,67.40
2019-05-23T00:13:51.877Z,67.60
2019-05-23T00:16:24.340Z,67.00
2019-05-23T00:18:56.283Z,67.70
2019-05-23T00:21:28.131Z,67.70
2019-05-23T00:24:00.202Z,67.80
2019-05-23T00:26:31.338Z,67.30
2019-05-23T00:29:10.079Z,67.40
2019-05-23T00:31:58.192Z,67.30
2019-05-23T00:34:33.583Z,68.20
2019-05-23T00:37:07.028Z,67.70
2019-05-23T00:39:40.713Z,67.60
2019-05-23T00:42:12.678Z,68.40
2019-05-23T00:44:43.481Z,67.70
2019-05-23T00:47:14.472Z,68.40
2019-05-23T00:49:47.214Z,68.60
2019-05-23T00:52:17.952Z,67.70
2019-05-23T00:54:51.545Z,68.40
2019-05-23T00:57:24.962Z,68.50
2019-05-23T00:59:56.022Z,68.40
2019-05-23T01:02:28.025Z,68.50
2019-05-23T01:04:58.895Z,68.40
2019-05-23T01:07:30.361Z,67.90
2019-05-23T01:10:04.621Z,68.00
2019-05-23T01:12:37.681Z,68.80
2019-05-23T01:15:09.900Z,68.80
2019-05-23T01:17:40.999Z,68.90
2019-05-23T01:20:15.756Z,68.80
2019-05-23T01:22:48.465Z,68.80
2019-05-23T01:25:21.279Z,68.80
2019-05-23T01:27:53.225Z,68.90
2019-05-23T01:30:30.093Z,68.10
2019-05-23T01:33:01.280Z,68.70
2019-05-23T01:35:32.854Z,68.90
2019-05-23T01:38:09.242Z,68.90
2019-05-23T01:40:41.597Z,68.90
2019-05-23T01:43:14.615Z,69.00
2019-05-23T01:45:46.322Z,68.50
2019-05-23T01:48:19.785Z,69.30
2019-05-23T01:50:52.763Z,69.40
2019-05-23T01:53:26.428Z,69.60
2019-05-23T01:55:57.253Z,69.80
2019-05-23T01:58:29.217Z,70.10
2019-05-23T02:00:59.698Z,70.20
2019-05-23T02:03:31.455Z,70.40
2019-05-23T02:06:02.342Z,69.90
2019-05-23T02:08:33.828Z,70.70
2019-05-23T02:11:04.967Z,70.80
2019-05-23T02:13:36.371Z,70.90
2019-05-23T02:16:08.192Z,70.50
2019-05-23T02:18:39.399Z,70.60
2019-05-23T02:21:12.591Z,71.20
2019-05-23T02:23:44.722Z,71.20
2019-05-23T02:26:17.280Z,71.30
2019-05-23T02:28:47.813Z,71.50
2019-05-23T02:31:18.885Z,71.60
2019-05-23T02:33:49.474Z,70.70
2019-05-23T02:36:22.083Z,71.30
2019-05-23T02:39:07.497Z,70.80
2019-05-23T02:41:42.863Z,71.60
2019-05-23T02:44:22.099Z,71.70
2019-05-23T02:47:05.018Z,71.70
2019-05-23T02:49:37.144Z,71.80
2019-05-23T02:52:27.921Z,71.90
2019-05-23T02:54:59.643Z,71.90
2019-05-23T02:57:31.276Z,71.90
2019-05-23T03:00:53.345Z,71.90
2019-05-23T03:03:19.515Z,72.10
2019-05-23T03:05:52.101Z,72.20
2019-05-23T03:08:24.445Z,72.30
2019-05-23T03:11:09.087Z,72.30
2019-05-23T03:13:41.768Z,72.50
2019-05-23T03:16:18.334Z,72.60
2019-05-23T03:18:53.082Z,72.80
2019-05-23T03:21:25.451Z,72.80
2019-05-23T03:23:57.895Z,72.90
2019-05-23T03:27:02.953Z,72.90
2019-05-23T03:29:35.758Z,73.00
2019-05-23T03:32:38.255Z,73.70
2019-05-23T03:35:10.617Z,73.10
2019-05-23T03:37:42.138Z,73.20
2019-05-23T03:40:12.908Z,73.30
2019-05-23T03:42:43.899Z,73.20
2019-05-23T03:45:17.584Z,73.00
2019-05-23T03:47:49.199Z,73.10
2019-05-23T03:50:21.191Z,73.00
2019-05-23T03:52:52.030Z,73.00
2019-05-23T03:55:24.972Z,73.00
2019-05-23T03:57:57.816Z,72.40
2019-05-23T04:00:33.661Z,73.10
2019-05-23T04:03:06.019Z,72.60
2019-05-23T04:05:37.419Z,72.50
2019-05-23T04:08:09.902Z,72.40
2019-05-23T04:10:41.281Z,72.50
2019-05-23T04:13:14.228Z,72.10
2019-05-23T04:15:45.203Z,72.50
2019-05-23T04:18:16.822Z,72.50
2019-05-23T04:20:49.950Z,72.30
2019-05-23T04:23:20.946Z,71.50
2019-05-23T04:25:51.774Z,72.20
2019-05-23T04:28:22.933Z,72.10
2019-05-23T04:30:54.126Z,72.10
2019-05-23T04:33:24.887Z,71.40
2019-05-23T04:35:57.782Z,71.70
2019-05-23T04:38:28.551Z,71.30
2019-05-23T04:41:00.638Z,71.90
2019-05-23T04:43:31.411Z,71.70
2019-05-23T04:46:02.112Z,71.90
2019-05-23T04:48:33.324Z,71.80
2019-05-23T04:51:07.147Z,71.40
2019-05-23T04:53:37.749Z,71.50
2019-05-23T04:56:11.277Z,71.00
2019-05-23T04:58:41.971Z,71.20
2019-05-23T05:01:13.115Z,71.70
2019-05-23T05:03:45.723Z,71.10
2019-05-23T05:06:17.729Z,70.90
2019-05-23T05:08:53.627Z,70.30
2019-05-23T05:11:24.421Z,70.20
2019-05-23T05:13:55.337Z,69.20
2019-05-23T05:16:26.417Z,67.80
2019-05-23T05:18:58.401Z,68.50
2019-05-23T05:21:30.269Z,67.80
2019-05-23T05:24:01.644Z,67.40
2019-05-23T05:26:33.723Z,66.70
2019-05-23T05:29:05.271Z,65.90
2019-05-23T05:31:37.189Z,64.10
2019-05-23T05:34:08.319Z,64.70
2019-05-23T05:36:40.687Z,64.10
2019-05-23T05:39:14.827Z,64.10
2019-05-23T05:41:45.526Z,63.60
2019-05-23T05:44:16.558Z,62.70
2019-05-23T05:46:48.700Z,62.10
2019-05-23T05:49:19.741Z,61.80
2019-05-23T05:51:50.653Z,62.50
2019-05-23T05:54:22.752Z,61.90
2019-05-23T05:56:53.456Z,62.30
2019-05-23T05:59:27.102Z,61.40
2019-05-23T06:02:01.756Z,60.60
2019-05-23T06:04:32.362Z,60.10
2019-05-23T06:07:16.115Z,59.50
2019-05-23T06:09:47.538Z,59.20
2019-05-23T06:12:19.749Z,57.60
2019-05-23T06:14:51.938Z,57.30
2019-05-23T06:17:23.670Z,57.90
2019-05-23T06:19:56.809Z,57.40
2019-05-23T06:22:28.298Z,57.50
2019-05-23T06:24:59.374Z,57.00
2019-05-23T06:27:30.330Z,57.40
2019-05-23T06:30:04.090Z,57.70
2019-05-23T06:32:35.871Z,57.00
2019-05-23T06:35:07.528Z,55.60
2019-05-23T06:37:38.660Z,56.10
2019-05-23T06:40:08.863Z,55.70
2019-05-23T06:42:39.781Z,55.40
2019-05-23T06:45:14.143Z,55.90
2019-05-23T06:47:44.791Z,55.80
2019-05-23T06:50:19.459Z,56.20
2019-05-23T06:52:50.391Z,56.10
2019-05-23T06:55:23.968Z,54.50
2019-05-23T06:57:55.040Z,55.10
2019-05-23T07:00:28.763Z,54.90
2019-05-23T07:03:00.903Z,54.60
2019-05-23T07:05:35.637Z,54.70
2019-05-23T07:08:07.955Z,55.00
2019-05-23T07:10:37.560Z,54.80
2019-05-23T07:13:08.752Z,54.60
2019-05-23T07:15:43.169Z,54.60
2019-05-23T07:18:13.884Z,54.60
2019-05-23T07:20:46.322Z,54.70
2019-05-23T07:23:18.747Z,54.60
2019-05-23T07:25:50.394Z,54.30
2019-05-23T07:28:21.152Z,54.20
2019-05-23T07:30:52.424Z,53.90
2019-05-23T07:33:22.077Z,53.90
2019-05-23T07:35:53.926Z,53.70
2019-05-23T07:38:24.667Z,53.20
2019-05-23T07:40:55.701Z,52.60
2019-05-23T07:43:26.692Z,52.00
2019-05-23T07:45:58.918Z,51.80
2019-05-23T07:48:30.854Z,50.70
2019-05-23T07:51:05.303Z,51.30
2019-05-23T07:53:55.307Z,50.80
2019-05-23T07:56:29.234Z,50.70
2019-05-23T07:58:59.982Z,49.40
2019-05-23T08:01:34.988Z,50.50
2019-05-23T08:04:20.698Z,50.40
2019-05-23T08:06:39.369Z,50.20
2019-05-23T08:09:11.610Z,50.20
2019-05-23T08:11:42.399Z,50.60
2019-05-23T08:14:13.191Z,50.40
2019-05-23T08:16:45.801Z,50.20
2019-05-23T08:19:19.712Z,49.60
2019-05-23T08:21:48.921Z,49.50
2019-05-23T08:24:20.380Z,49.40
2019-05-23T08:26:51.167Z,49.30
2019-05-23T08:29:25.936Z,49.00
2019-05-23T08:31:54.347Z,47.70
2019-05-23T08:34:40.835Z,48.60
2019-05-23T08:36:58.121Z,48.00
2019-05-23T08:39:28.819Z,48.00
2019-05-23T08:41:59.865Z,48.10
2019-05-23T08:44:30.740Z,48.10
2019-05-23T08:47:01.737Z,47.30
2019-05-23T08:49:32.493Z,47.00
2019-05-23T08:52:03.458Z,46.30
2019-05-23T08:54:34.238Z,45.90
2019-05-23T08:57:06.906Z,45.80
2019-05-23T08:59:37.639Z,45.20
2019-05-23T09:02:11.551Z,45.70
2019-05-23T09:05:02.576Z,46.20
2019-05-23T09:07:17.044Z,45.20
2019-05-23T09:09:48.843Z,44.20
2019-05-23T09:12:20.621Z,44.40
2019-05-23T09:14:51.534Z,44.20
2019-05-23T09:17:23.259Z,42.80
2019-05-23T09:19:53.868Z,41.90
2019-05-23T09:22:25.956Z,41.30
2019-05-23T09:24:57.528Z,41.80
2019-05-23T09:27:29.200Z,41.50
2019-05-23T09:30:01.453Z,40.90
2019-05-23T09:32:32.225Z,40.60
2019-05-23T09:35:19.604Z,40.00
2019-05-23T09:37:38.643Z,39.20
2019-05-23T09:40:09.436Z,38.00
2019-05-23T09:45:14.264Z,38.10
2019-05-23T09:47:45.171Z,39.00
2019-05-23T09:50:18.439Z,38.90
2019-05-23T09:52:49.057Z,38.40
2019-05-23T09:55:20.890Z,37.30
2019-05-23T09:57:51.447Z,37.60
2019-05-23T10:00:23.978Z,37.20
2019-05-23T10:02:54.841Z,37.80
2019-05-23T10:05:41.691Z,38.30
2019-05-23T10:07:57.871Z,38.30
2019-05-23T10:10:28.809Z,38.30
2019-05-23T10:13:02.289Z,38.80
2019-05-23T10:15:55.035Z,38.70
2019-05-23T10:18:26.141Z,38.70
2019-05-23T10:21:09.891Z,38.40
2019-05-23T10:23:40.166Z,39.10
2019-05-23T10:26:11.114Z,39.30
2019-05-23T10:28:41.805Z,39.70
2019-05-23T10:31:14.090Z,40.50
2019-05-23T10:33:44.886Z,40.50
2019-05-23T10:36:15.767Z,40.20
2019-05-23T10:38:46.624Z,40.50
2019-05-23T10:41:17.238Z,40.90
2019-05-23T10:43:47.947Z,41.60
2019-05-23T10:46:18.955Z,42.30
2019-05-23T10:48:49.923Z,42.40
2019-05-23T10:51:19.452Z,42.20
2019-05-23T10:53:50.111Z,43.30
2019-05-23T10:56:21.655Z,43.00
2019-05-23T10:58:52.305Z,43.20
2019-05-23T11:01:23.196Z,43.30
2019-05-23T11:03:54.041Z,42.90
2019-05-23T11:06:25.124Z,43.20
2019-05-23T11:08:56.461Z,43.80
2019-05-23T11:11:27.985Z,44.30
2019-05-23T11:13:59.116Z,43.90
2019-05-23T11:16:28.973Z,43.90
2019-05-23T11:18:59.951Z,43.40
2019-05-23T11:21:29.569Z,43.40
2019-05-23T11:24:00.052Z,43.40
2019-05-23T11:26:30.772Z,43.50
2019-05-23T11:29:03.080Z,44.10
2019-05-23T11:31:34.010Z,44.20
2019-05-23T11:34:04.953Z,43.50
2019-05-23T11:36:37.080Z,43.80
2019-05-23T11:39:09.106Z,43.80
2019-05-23T11:41:39.995Z,42.90
2019-05-23T11:44:10.482Z,41.70
2019-05-23T11:46:41.409Z,41.40
2019-05-23T11:49:11.067Z,41.70
2019-05-23T11:51:41.689Z,41.80
2019-05-23T11:54:12.430Z,42.00
2019-05-23T11:56:46.266Z,42.80
2019-05-23T11:59:25.601Z,42.60
2019-05-23T12:02:18.734Z,42.60
2019-05-23T12:04:49.671Z,42.00
2019-05-23T12:07:31.281Z,41.60
2019-05-23T12:10:08.041Z,41.90
2019-05-23T12:12:38.758Z,41.50
2019-05-23T12:15:13.303Z,42.90
2019-05-23T12:17:44.119Z,41.00
2019-05-23T12:20:18.613Z,41.20
2019-05-23T12:22:51.048Z,41.00
2019-05-23T12:25:23.524Z,41.10
2019-05-23T12:27:57.494Z,41.10
2019-05-23T12:30:28.774Z,41.00
2019-05-23T12:32:59.436Z,40.90
2019-05-23T12:35:31.743Z,41.40
2019-05-23T12:38:02.839Z,41.50
2019-05-23T12:40:32.436Z,40.90
2019-05-23T12:43:03.246Z,37.90
2019-05-23T12:45:33.860Z,39.00
2019-05-23T12:48:10.089Z,38.50
2019-05-23T12:50:43.478Z,37.70
2019-05-23T12:53:15.410Z,37.30
2019-05-23T12:55:48.826Z,37.20
2019-05-23T12:58:19.977Z,36.50
2019-05-23T13:00:52.694Z,36.90
2019-05-23T13:03:24.041Z,36.20
2019-05-23T13:05:55.152Z,36.60
2019-05-23T13:08:25.977Z,37.60
2019-05-23T13:10:56.623Z,36.80
2019-05-23T13:13:27.928Z,36.80
2019-05-23T13:15:58.711Z,37.90
2019-05-23T13:18:29.396Z,37.40
2019-05-23T13:21:00.066Z,37.20
2019-05-23T13:23:31.071Z,36.90
2019-05-23T13:26:01.920Z,36.90
2019-05-23T13:28:32.525Z,37.10
2019-05-23T13:31:03.315Z,35.90
2019-05-23T13:33:34.002Z,35.30
2019-05-23T13:36:05.175Z,34.20
2019-05-23T13:38:36.022Z,33.60
2019-05-23T13:41:06.666Z,33.50
2019-05-23T13:43:39.680Z,32.80
2019-05-23T13:46:10.840Z,32.70
2019-05-23T13:48:41.508Z,32.30
2019-05-23T13:51:14.221Z,32.70
2019-05-23T13:53:44.813Z,31.90
2019-05-23T13:56:15.746Z,31.00
2019-05-23T13:58:45.258Z,30.80
2019-05-23T14:01:16.863Z,30.30
2019-05-23T14:03:47.952Z,30.10
2019-05-23T14:06:19.075Z,29.40
2019-05-23T14:08:50.089Z,29.40
2019-05-23T14:11:20.912Z,29.10
2019-05-23T14:13:59.787Z,29.10
2019-05-23T14:16:24.098Z,29.00
2019-05-23T14:18:53.673Z,28.00
2019-05-23T14:21:24.466Z,27.20
2019-05-23T14:23:55.282Z,27.50
2019-05-23T14:26:27.564Z,27.80
2019-05-23T14:28:58.358Z,28.50
2019-05-23T14:31:30.797Z,29.30
2019-05-23T14:34:07.315Z,29.00
2019-05-23T14:37:02.898Z,29.90
2019-05-23T14:39:49.687Z,30.10
2019-05-23T14:42:45.476Z,29.10
2019-05-23T14:45:34.518Z,29.20
2019-05-23T14:48:36.256Z,29.50
2019-05-23T14:51:32.071Z,29.70
2019-05-23T14:54:38.051Z,29.40
2019-05-23T14:57:11.243Z,29.70
2019-05-23T14:59:42.476Z,29.30
2019-05-23T15:02:19.129Z,29.70
2019-05-23T15:04:50.228Z,29.30
2019-05-23T15:07:21.319Z,29.70
2019-05-23T15:09:53.319Z,29.90
2019-05-23T15:12:24.123Z,30.50
2019-05-23T15:14:56.706Z,31.20
2019-05-23T15:17:29.384Z,32.00
2019-05-23T15:20:01.404Z,33.00
2019-05-23T15:22:33.771Z,33.00
2019-05-23T15:25:04.934Z,33.20
2019-05-23T15:27:35.700Z,33.70
2019-05-23T15:30:09.192Z,33.70
2019-05-23T15:32:39.763Z,34.30
2019-05-23T15:35:10.545Z,34.70
2019-05-23T15:37:41.510Z,35.00
2019-05-23T15:40:11.226Z,35.30
2019-05-23T15:42:42.240Z,35.30
2019-05-23T15:45:13.982Z,35.30
2019-05-23T15:47:44.935Z,35.20
2019-05-23T15:50:16.171Z,35.30
2019-05-23T15:53:02.211Z,36.80
2019-05-23T15:55:44.199Z,36.50
2019-05-23T15:58:32.108Z,36.60
2019-05-23T16:01:18.150Z,36.80
2019-05-23T16:03:54.036Z,36.00
2019-05-23T16:06:27.166Z,36.00
2019-05-23T16:08:57.849Z,35.90
2019-05-23T16:11:28.757Z,35.70
2019-05-23T16:13:59.728Z,35.30
2019-05-23T16:16:32.835Z,35.20
2019-05-23T16:19:04.375Z,35.00
2019-05-23T16:21:35.903Z,35.10
2019-05-23T16:24:07.702Z,35.80
2019-05-23T16:26:39.638Z,35.70
2019-05-23T16:29:12.849Z,35.30
2019-05-23T16:31:43.768Z,35.20
2019-05-23T16:34:14.582Z,35.50
2019-05-23T16:36:46.282Z,36.20
2019-05-23T16:39:19.507Z,35.80
2019-05-23T16:41:52.451Z,36.90
2019-05-23T16:44:24.277Z,34.10
2019-05-23T16:46:56.875Z,32.60
2019-05-23T16:49:29.966Z,32.60
2019-05-23T16:52:00.696Z,32.80
2019-05-23T16:54:37.786Z,32.40
2019-05-23T16:57:17.580Z,32.70
2019-05-23T17:00:09.818Z,33.80
2019-05-23T17:02:57.812Z,33.10
2019-05-23T17:06:17.794Z,30.80
2019-05-23T17:09:05.592Z,30.00
2019-05-23T17:12:13.337Z,30.50
2019-05-23T17:14:53.100Z,29.70
2019-05-23T17:18:01.397Z,30.30
2019-05-23T17:20:38.418Z,30.90
2019-05-23T17:23:46.293Z,31.70
2019-05-23T17:26:26.084Z,32.80
2019-05-23T17:28:56.969Z,33.60
2019-05-23T17:31:33.046Z,33.70
2019-05-23T17:34:03.793Z,34.00
2019-05-23T17:36:34.777Z,34.20
2019-05-23T17:39:08.583Z,34.30
2019-05-23T17:41:39.553Z,34.10
2019-05-23T17:44:10.269Z,34.20
2019-05-23T17:46:41.101Z,34.70
2019-05-23T17:49:11.738Z,34.30
2019-05-23T17:51:42.461Z,34.30
2019-05-23T17:54:14.415Z,33.90
2019-05-23T17:56:45.063Z,33.90
2019-05-23T17:59:15.622Z,34.40
2019-05-23T18:01:46.349Z,34.60
2019-05-23T18:04:17.288Z,34.70
2019-05-23T18:06:48.670Z,34.90
2019-05-23T18:09:20.108Z,35.10
2019-05-23T18:11:51.698Z,35.50
2019-05-23T18:14:22.816Z,35.80
2019-05-23T18:16:54.707Z,36.10
2019-05-23T18:19:26.556Z,36.90
2019-05-23T18:21:58.893Z,36.60
2019-05-23T18:24:30.269Z,36.50
2019-05-23T18:27:02.443Z,36.20
2019-05-23T18:29:34.267Z,36.30
2019-05-23T18:32:09.262Z,36.00
2019-05-23T18:34:41.189Z,36.00
2019-05-23T18:37:11.750Z,35.70
2019-05-23T18:39:44.041Z,35.50
2019-05-23T18:42:15.749Z,35.20
2019-05-23T18:44:47.512Z,34.80
2019-05-23T18:47:30.552Z,35.00
2019-05-23T18:50:01.799Z,35.00
2019-05-23T18:52:34.059Z,35.20
2019-05-23T18:55:05.984Z,35.80
2019-05-23T18:57:41.951Z,36.30
2019-05-23T19:00:13.910Z,36.80
2019-05-23T19:02:44.651Z,36.80
2019-05-23T19:05:16.267Z,36.50
2019-05-23T19:07:48.280Z,36.40
2019-05-23T19:10:19.443Z,36.50
2019-05-23T19:12:49.725Z,36.50
2019-05-23T19:15:20.499Z,37.40
2019-05-23T19:17:51.100Z,37.20
2019-05-23T19:20:21.742Z,37.40
2019-05-23T19:22:52.957Z,37.70
2019-05-23T19:25:24.061Z,38.20
2019-05-23T19:27:56.254Z,38.60
2019-05-23T19:30:26.843Z,39.10
2019-05-23T19:32:57.618Z,40.50
2019-05-23T19:35:28.342Z,40.10
2019-05-23T19:38:01.741Z,40.70
2019-05-23T19:40:32.909Z,41.20
2019-05-23T19:43:02.794Z,41.60
2019-05-23T19:45:33.623Z,42.70
2019-05-23T19:48:07.943Z,42.40
2019-05-23T19:50:38.721Z,43.10
2019-05-23T19:53:10.516Z,43.50
2019-05-23T19:55:41.136Z,44.10
2019-05-23T19:58:11.661Z,44.80
2019-05-23T20:00:43.826Z,44.90
2019-05-23T20:03:14.953Z,45.40
2019-05-23T20:05:47.264Z,45.80
2019-05-23T20:08:18.098Z,46.20
2019-05-23T20:10:48.907Z,46.50
2019-05-23T20:13:19.630Z,47.00
2019-05-23T20:15:50.350Z,47.70
2019-05-23T20:18:21.688Z,48.50
2019-05-23T20:20:52.514Z,49.00
2019-05-23T20:23:25.548Z,49.90
2019-05-23T20:25:56.198Z,50.80
2019-05-23T20:28:27.248Z,51.50
2019-05-23T20:30:59.701Z,52.40
2019-05-23T20:33:30.767Z,52.70
2019-05-23T20:36:03.486Z,53.20
2019-05-23T20:38:34.531Z,53.50
2019-05-23T20:41:05.903Z,54.30
2019-05-23T20:43:36.811Z,54.80
2019-05-23T20:46:07.496Z,55.10
2019-05-23T20:48:38.330Z,55.70
2019-05-23T20:51:09.394Z,56.00
2019-05-23T20:53:40.988Z,56.30
2019-05-23T20:56:12.570Z,56.70
2019-05-23T20:58:44.850Z,57.00
2019-05-23T21:01:19.004Z,57.30
2019-05-23T21:03:50.519Z,57.60
2019-05-23T21:06:21.136Z,57.80
2019-05-23T21:08:51.794Z,58.10
2019-05-23T21:11:22.552Z,58.40
2019-05-23T21:13:55.209Z,58.80
2019-05-23T21:16:25.807Z,59.00
2019-05-23T21:18:56.321Z,59.20
2019-05-23T21:21:28.504Z,59.40
2019-05-23T21:24:00.651Z,59.50
2019-05-23T21:26:31.454Z,59.70
2019-05-23T21:29:02.065Z,59.70
2019-05-23T21:31:41.619Z,59.90
2019-05-23T21:34:14.011Z,60.10
2019-05-23T21:36:45.448Z,60.30
2019-05-23T21:39:17.906Z,60.60
2019-05-23T21:41:50.320Z,61.00
2019-05-23T21:44:22.585Z,61.80
2019-05-23T21:46:53.768Z,61.20
2019-05-23T21:49:24.501Z,61.20
2019-05-23T21:51:55.171Z,61.30
2019-05-23T21:54:25.733Z,61.30
2019-05-23T21:56:56.882Z,61.60
2019-05-23T21:59:27.947Z,61.70
2019-05-23T22:02:13.845Z,61.80
2019-05-23T22:04:49.754Z,62.10
2019-05-23T22:07:20.665Z,62.00
2019-05-23T22:09:51.669Z,62.40
2019-05-23T22:12:23.637Z,62.80
2019-05-23T22:14:56.844Z,63.00
2019-05-23T22:17:27.781Z,63.20
2019-05-23T22:19:58.500Z,63.10
2019-05-23T22:22:29.423Z,63.10
2019-05-23T22:25:01.833Z,63.40
2019-05-23T22:27:31.713Z,63.50
2019-05-23T22:30:02.324Z,64.70
2019-05-23T22:32:33.856Z,63.70
2019-05-23T22:35:14.131Z,63.80
2019-05-23T22:37:44.925Z,64.20
2019-05-23T22:40:16.915Z,64.20
2019-05-23T22:42:47.651Z,64.50
2019-05-23T22:45:20.641Z,64.90
2019-05-23T22:47:51.588Z,65.10
2019-05-23T22:50:24.357Z,65.20
2019-05-23T22:52:55.013Z,65.50
2019-05-23T22:55:26.074Z,66.10
2019-05-23T22:57:56.879Z,66.20
2019-05-23T23:00:33.431Z,66.70
2019-05-23T23:03:05.529Z,67.00
2019-05-23T23:05:36.576Z,67.30
2019-05-23T23:08:07.701Z,67.50
2019-05-23T23:10:39.797Z,67.80
2019-05-23T23:13:11.658Z,68.20
2019-05-23T23:15:42.713Z,68.20
2019-05-23T23:18:13.422Z,68.50
2019-05-23T23:20:45.786Z,68.70
2019-05-23T23:23:16.302Z,68.90
2019-05-23T23:25:46.890Z,69.00
2019-05-23T23:28:18.176Z,69.20
2019-05-23T23:30:50.382Z,69.40
2019-05-23T23:33:21.161Z,69.60
2019-05-23T23:35:51.718Z,69.80
2019-05-23T23:38:22.481Z,70.00
2019-05-23T23:40:53.232Z,70.40
2019-05-23T23:43:24.856Z,70.60
2019-05-23T23:46:12.932Z,70.80
2019-05-23T23:49:00.850Z,71.00
2019-05-23T23:51:51.325Z,71.40
2019-05-23T23:54:39.511Z,71.60
2019-05-23T23:57:27.855Z,72.10
